createdAt,value
2023-03-06T00:00:15.914Z,62.272340
2023-03-06T00:05:15.973Z,61.985714
2023-03-06T00:10:15.691Z,61.792806
2023-03-06T00:15:15.582Z,62.063121
2023-03-06T00:20:16.046Z,62.932857
2023-03-06T00:25:17.926Z,63.540426
2023-03-06T00:30:17.851Z,64.472340
2023-03-06T00:35:16.166Z,64.326761
2023-03-06T00:40:15.801Z,63.795070
2023-03-06T00:45:15.720Z,63.005674
2023-03-06T00:50:15.979Z,61.639860
2023-03-06T00:55:16.141Z,61.440426
2023-03-06T01:00:17.291Z,60.760839
2023-03-06T01:05:15.871Z,60.236364
2023-03-06T01:10:17.588Z,60.490210
2023-03-06T01:15:16.030Z,60.958451
2023-03-06T01:20:16.691Z,62.395775
2023-03-06T01:25:16.124Z,63.617021
2023-03-06T01:30:15.864Z,64.802113
2023-03-06T01:35:15.960Z,66.254930
2023-03-06T01:40:16.428Z,67.095745
2023-03-06T01:45:16.019Z,67.009929
2023-03-06T01:50:15.999Z,67.163380
2023-03-06T01:55:15.522Z,67.468085
2023-03-06T02:00:15.736Z,67.647857
2023-03-06T02:05:17.429Z,67.492908
2023-03-06T02:10:15.450Z,67.100709
2023-03-06T02:15:17.144Z,66.400714
2023-03-06T02:20:15.530Z,65.842553
2023-03-06T02:25:15.723Z,66.197163
2023-03-06T02:30:16.587Z,66.391429
2023-03-06T02:35:16.570Z,65.065248
2023-03-06T02:40:15.842Z,66.909091
2023-03-06T02:45:15.702Z,68.238028
2023-03-06T02:50:16.366Z,70.307092
2023-03-06T02:55:18.751Z,73.432857
2023-03-06T03:00:15.726Z,75.102128
2023-03-06T03:05:16.184Z,75.551064
2023-03-06T03:10:16.253Z,77.184058
2023-03-06T03:15:16.105Z,77.412143
2023-03-06T03:20:15.889Z,78.319286
2023-03-06T03:25:16.185Z,78.623571
2023-03-06T03:30:16.719Z,78.930714
2023-03-06T03:35:15.731Z,78.616429
2023-03-06T03:40:16.294Z,79.031690
2023-03-06T03:45:16.952Z,79.068310
2023-03-06T03:50:15.916Z,79.238028
2023-03-06T03:55:15.948Z,79.713475
2023-03-06T04:00:15.814Z,80.557746
2023-03-06T04:05:16.862Z,81.763830
2023-03-06T04:10:16.676Z,82.441007
2023-03-06T04:15:16.318Z,82.958993
2023-03-06T04:20:16.446Z,83.035075
2023-03-06T04:25:15.829Z,83.188806
2023-03-06T04:30:16.048Z,82.991791
2023-03-06T04:35:15.629Z,82.772388
2023-03-06T04:40:15.684Z,82.689474
2023-03-06T04:45:15.889Z,83.013139
2023-03-06T04:50:16.793Z,83.163768
2023-03-06T04:55:17.500Z,83.158451
2023-03-06T05:00:16.363Z,82.418310
2023-03-06T05:05:15.646Z,81.950355
2023-03-06T05:10:16.077Z,82.925714
2023-03-06T05:15:15.471Z,83.300000
2023-03-06T05:20:15.818Z,82.684507
2023-03-06T05:25:16.499Z,82.762411
2023-03-06T05:30:16.136Z,83.650000
2023-03-06T05:35:15.882Z,84.312857
2023-03-06T05:40:16.946Z,84.948936
2023-03-06T05:45:16.342Z,85.007246
2023-03-06T05:50:15.930Z,85.084058
2023-03-06T05:55:16.456Z,85.344681
2023-03-06T06:00:15.954Z,85.391304
2023-03-06T06:05:15.548Z,85.334752
2023-03-06T06:10:17.408Z,84.837857
2023-03-06T06:15:16.668Z,84.317266
2023-03-06T06:20:16.058Z,83.786957
2023-03-06T06:25:19.976Z,83.995035
2023-03-06T06:30:17.041Z,83.927972
2023-03-06T06:35:18.337Z,83.756643
2023-03-06T06:40:15.773Z,83.506207
2023-03-06T06:45:15.535Z,83.168056
2023-03-06T06:50:17.653Z,82.697260
2023-03-06T06:55:15.713Z,82.610884
2023-03-06T07:00:16.031Z,82.502083
2023-03-06T07:05:16.985Z,83.261224
2023-03-06T07:10:15.885Z,83.882192
2023-03-06T07:15:15.996Z,84.253103
2023-03-06T07:20:15.956Z,84.805405
2023-03-06T07:25:16.284Z,85.049315
2023-03-06T07:30:16.079Z,84.581633
2023-03-06T07:35:20.342Z,84.264430
2023-03-06T07:40:16.200Z,83.725000
2023-03-06T07:45:16.107Z,83.657931
2023-03-06T07:50:15.767Z,84.049315
2023-03-06T07:55:17.620Z,84.868056
2023-03-06T08:00:15.721Z,84.880137
2023-03-06T08:05:15.848Z,84.113986
2023-03-06T08:10:16.548Z,84.637324
2023-03-06T08:15:16.321Z,84.653846
2023-03-06T08:20:15.871Z,83.953741
2023-03-06T08:25:15.586Z,83.216783
2023-03-06T08:30:16.000Z,82.853103
2023-03-06T08:35:15.852Z,82.839161
2023-03-06T08:40:15.957Z,83.217361
2023-03-06T08:45:16.451Z,82.915972
2023-03-06T08:50:17.152Z,82.944056
2023-03-06T08:55:15.847Z,83.254545
2023-03-06T09:00:16.819Z,83.463636
2023-03-06T09:05:16.148Z,82.899315
2023-03-06T09:10:15.715Z,82.268276
2023-03-06T09:15:16.423Z,82.220408
2023-03-06T09:20:16.378Z,82.197945
2023-03-06T09:25:16.138Z,82.790411
2023-03-06T09:30:16.449Z,82.475510
2023-03-06T09:35:15.984Z,82.229932
2023-03-06T09:40:15.929Z,82.217687
2023-03-06T09:45:16.297Z,82.079452
2023-03-06T09:50:16.021Z,82.129932
2023-03-06T09:55:16.419Z,82.562329
2023-03-06T10:00:15.901Z,82.511565
2023-03-06T10:05:17.431Z,82.288889
2023-03-06T10:10:15.741Z,82.419580
2023-03-06T10:15:16.636Z,82.698621
2023-03-06T10:20:16.622Z,82.655556
2023-03-06T10:25:16.162Z,82.324823
2023-03-06T10:30:16.190Z,82.807801
2023-03-06T10:35:16.046Z,82.836620
2023-03-06T10:40:17.378Z,82.609929
2023-03-06T10:45:16.500Z,82.632867
2023-03-06T10:50:16.289Z,82.172603
2023-03-06T10:55:18.358Z,81.965972
2023-03-06T11:00:16.025Z,81.468750
2023-03-06T11:05:16.572Z,80.637241
2023-03-06T11:10:16.204Z,80.664583
2023-03-06T11:15:16.048Z,82.294444
2023-03-06T11:20:16.287Z,82.269444
2023-03-06T11:25:15.986Z,82.435417
2023-03-06T11:30:16.359Z,82.364384
2023-03-06T11:35:17.175Z,82.377931
2023-03-06T11:40:16.301Z,82.342857
2023-03-06T11:45:16.281Z,82.265986
2023-03-06T11:50:15.802Z,82.373103
2023-03-06T11:55:16.165Z,82.618750
2023-03-06T12:00:16.070Z,82.969655
2023-03-06T12:05:15.839Z,82.650685
2023-03-06T12:10:16.676Z,82.359589
2023-03-06T12:15:15.769Z,82.702055
2023-03-06T12:20:16.125Z,82.592517
2023-03-06T12:25:16.059Z,82.681081
2023-03-06T12:30:16.878Z,82.575676
2023-03-06T12:35:16.025Z,81.762329
2023-03-06T12:40:15.833Z,81.387671
2023-03-06T12:45:16.294Z,81.618493
2023-03-06T12:50:15.941Z,82.108276
2023-03-06T12:55:15.688Z,82.515753
2023-03-06T13:00:16.070Z,82.845578
2023-03-06T13:05:16.400Z,82.535616
2023-03-06T13:10:15.653Z,84.582394
2023-03-06T13:15:16.021Z,84.677083
2023-03-06T13:20:15.897Z,84.767808
2023-03-06T13:25:16.422Z,84.319178
2023-03-06T13:30:16.091Z,83.760274
2023-03-06T13:35:16.154Z,83.373288
2023-03-06T13:40:16.177Z,83.715862
2023-03-06T13:45:16.287Z,84.782313
2023-03-06T13:50:15.591Z,85.148993
2023-03-06T13:55:16.182Z,84.433108
2023-03-06T14:00:15.778Z,84.224832
2023-03-06T14:05:15.636Z,84.937584
2023-03-06T14:10:17.908Z,83.663087
2023-03-06T14:15:15.998Z,83.085235
2023-03-06T14:20:16.823Z,82.652414
2023-03-06T14:25:16.382Z,82.442759
2023-03-06T14:30:18.051Z,82.207639
2023-03-06T14:35:17.287Z,82.038889
2023-03-06T14:40:16.284Z,82.104138
2023-03-06T14:45:16.444Z,82.195105
2023-03-06T14:50:16.146Z,81.888356
2023-03-06T14:55:16.487Z,82.111111
2023-03-06T15:00:16.815Z,83.282313
2023-03-06T15:05:15.669Z,82.595270
2023-03-06T15:10:15.638Z,82.623973
2023-03-06T15:15:16.308Z,83.048299
2023-03-06T15:20:15.780Z,82.850000
2023-03-06T15:25:16.111Z,80.857333
2023-03-06T15:30:16.347Z,79.830405
2023-03-06T15:35:15.725Z,79.833333
2023-03-06T15:40:16.435Z,78.721379
2023-03-06T15:45:16.119Z,79.653103
2023-03-06T15:50:15.809Z,79.957931
2023-03-06T15:55:15.688Z,78.351034
2023-03-06T16:00:26.953Z,77.958333
2023-03-06T16:05:16.250Z,78.318881
2023-03-06T16:10:17.292Z,79.231250
2023-03-06T16:15:16.408Z,79.319580
2023-03-06T16:20:15.626Z,79.860000
2023-03-06T16:25:15.689Z,79.748276
2023-03-06T16:30:15.537Z,78.440972
2023-03-06T16:35:16.101Z,77.200699
2023-03-06T16:40:15.846Z,76.585000
2023-03-06T16:45:26.460Z,76.051079
2023-03-06T16:50:16.540Z,75.914388
2023-03-06T16:55:16.059Z,76.937857
2023-03-06T17:00:15.632Z,77.353957
2023-03-06T17:05:16.328Z,76.064286
2023-03-06T17:10:15.692Z,74.802837
2023-03-06T17:15:15.584Z,75.202817
2023-03-06T17:20:16.181Z,76.762676
2023-03-06T17:25:16.296Z,76.936364
2023-03-06T17:30:16.568Z,75.672143
2023-03-06T17:35:16.125Z,75.837589
2023-03-06T17:40:15.752Z,74.331884
2023-03-06T17:45:15.788Z,74.595489
2023-03-06T17:50:16.339Z,74.973684
2023-03-06T17:55:16.671Z,74.024088
2023-03-06T18:00:15.841Z,72.425185
2023-03-06T18:05:17.781Z,72.219853
2023-03-06T18:10:19.686Z,72.229197
2023-03-06T18:15:21.819Z,72.941912
2023-03-06T18:20:16.633Z,72.436496
2023-03-06T18:25:17.477Z,72.517518
2023-03-06T18:30:16.447Z,73.426119
2023-03-06T18:35:15.556Z,73.279412
2023-03-06T18:40:15.649Z,73.810145
2023-03-06T18:45:16.412Z,74.211594
2023-03-06T18:50:16.413Z,74.289209
2023-03-06T18:55:15.855Z,73.829710
2023-03-06T19:00:15.969Z,73.312766
2023-03-06T19:05:16.247Z,71.430935
2023-03-06T19:10:15.874Z,70.598561
2023-03-06T19:15:18.920Z,70.205714
2023-03-06T19:20:16.915Z,68.635036
2023-03-06T19:25:15.608Z,66.440741
2023-03-06T19:30:16.268Z,66.807246
2023-03-06T19:35:16.369Z,66.779710
2023-03-06T19:40:19.821Z,65.584783
2023-03-06T19:45:15.718Z,65.316788
2023-03-06T19:50:16.029Z,63.223188
2023-03-06T19:55:20.595Z,63.658273
2023-03-06T20:00:17.333Z,63.519424
2023-03-06T20:05:16.058Z,62.889781
2023-03-06T20:10:16.689Z,62.411511
2023-03-06T20:15:16.194Z,63.249275
2023-03-06T20:20:16.832Z,62.678102
2023-03-06T20:25:16.201Z,61.910072
2023-03-06T20:30:16.101Z,62.009559
2023-03-06T20:35:17.844Z,61.553676
2023-03-06T20:40:16.525Z,61.011679
2023-03-06T20:45:16.135Z,60.663768
2023-03-06T20:50:16.622Z,60.597857
2023-03-06T20:55:15.881Z,59.364085
2023-03-06T21:00:15.972Z,58.591608
2023-03-06T21:05:15.825Z,59.106383
2023-03-06T21:10:16.059Z,58.199310
2023-03-06T21:15:16.020Z,57.997183
2023-03-06T21:20:16.259Z,58.479433
2023-03-06T21:25:17.292Z,59.987591
2023-03-06T21:30:18.611Z,60.379577
2023-03-06T21:35:16.126Z,59.289655
2023-03-06T21:40:15.758Z,58.844056
2023-03-06T21:45:15.907Z,60.910959
2023-03-06T21:50:15.607Z,61.234965
2023-03-06T21:55:16.777Z,62.292308
2023-03-06T22:00:15.969Z,62.353103
2023-03-06T22:05:20.518Z,61.630496
2023-03-06T22:10:15.798Z,60.457746
2023-03-06T22:15:15.994Z,59.777305
2023-03-06T22:20:16.078Z,59.879433
2023-03-06T22:25:16.239Z,60.161806
2023-03-06T22:30:15.698Z,60.828966
2023-03-06T22:35:15.549Z,60.015862
2023-03-06T22:40:16.316Z,60.411189
2023-03-06T22:45:16.203Z,60.829861
2023-03-06T22:50:17.393Z,60.292308
2023-03-06T22:55:16.298Z,59.915385
2023-03-06T23:00:16.781Z,61.232394
2023-03-06T23:05:15.712Z,61.758865
2023-03-06T23:10:15.732Z,61.308511
2023-03-06T23:15:15.505Z,60.260690
2023-03-06T23:20:15.666Z,59.490411
2023-03-06T23:25:16.172Z,58.885417
2023-03-06T23:30:16.492Z,58.768276
2023-03-06T23:35:16.113Z,59.445890
2023-03-06T23:40:16.284Z,59.292414
2023-03-06T23:45:16.416Z,60.682270
2023-03-06T23:50:16.359Z,60.851049
2023-03-06T23:55:16.740Z,60.852857
